createdAt,value
2019-05-11T00:00:16.470Z,100.00
2019-05-11T00:02:44.757Z,100.00
2019-05-11T00:05:13.197Z,100.00
2019-05-11T00:07:41.591Z,100.00
2019-05-11T00:10:09.903Z,100.00
2019-05-11T00:12:38.253Z,100.00
2019-05-11T00:15:06.634Z,100.00
2019-05-11T00:17:34.937Z,100.00
2019-05-11T00:20:03.620Z,100.00
2019-05-11T00:22:31.921Z,100.00
2019-05-11T00:25:00.219Z,100.00
2019-05-11T00:27:28.562Z,100.00
2019-05-11T00:29:56.834Z,100.00
2019-05-11T00:32:25.118Z,100.00
2019-05-11T00:34:53.603Z,100.00
2019-05-11T00:37:21.977Z,100.00
2019-05-11T00:39:50.258Z,100.00
2019-05-11T00:42:18.596Z,100.00
2019-05-11T00:44:47.587Z,100.00
2019-05-11T00:47:15.964Z,100.00
2019-05-11T00:49:44.286Z,100.00
2019-05-11T00:52:12.628Z,100.00
2019-05-11T00:54:41.040Z,100.00
2019-05-11T00:57:09.313Z,100.00
2019-05-11T00:59:37.597Z,100.00
2019-05-11T01:02:06.087Z,100.00
2019-05-11T01:04:34.378Z,100.00
2019-05-11T01:07:02.783Z,100.00
2019-05-11T01:09:31.131Z,100.00
2019-05-11T01:11:59.462Z,100.00
2019-05-11T01:14:27.841Z,100.00
2019-05-11T01:16:56.252Z,100.00
2019-05-11T01:19:24.587Z,100.00
2019-05-11T01:21:52.885Z,100.00
2019-05-11T01:24:21.261Z,100.00
2019-05-11T01:26:49.635Z,100.00
2019-05-11T01:29:18.055Z,100.00
2019-05-11T01:31:46.696Z,100.00
2019-05-11T01:34:15.119Z,100.00
2019-05-11T01:36:43.457Z,100.00
2019-05-11T01:39:12.445Z,100.00
2019-05-11T01:41:40.749Z,100.00
2019-05-11T01:44:09.078Z,100.00
2019-05-11T01:46:37.362Z,100.00
2019-05-11T01:49:05.637Z,100.00
2019-05-11T01:51:33.974Z,100.00
2019-05-11T01:54:02.758Z,100.00
2019-05-11T01:56:31.016Z,100.00
2019-05-11T01:58:59.452Z,100.00
2019-05-11T02:01:27.784Z,100.00
2019-05-11T02:03:56.078Z,100.00
2019-05-11T02:06:24.417Z,100.00
2019-05-11T02:08:52.794Z,100.00
2019-05-11T02:11:21.516Z,100.00
2019-05-11T02:13:49.897Z,100.00
2019-05-11T02:16:18.185Z,100.00
2019-05-11T02:18:46.527Z,100.00
2019-05-11T02:21:14.894Z,100.00
2019-05-11T02:23:44.239Z,100.00
2019-05-11T02:26:12.541Z,100.00
2019-05-11T02:28:40.821Z,100.00
2019-05-11T02:31:09.278Z,100.00
2019-05-11T02:33:37.621Z,100.00
2019-05-11T02:36:05.897Z,100.00
2019-05-11T02:38:34.308Z,100.00
2019-05-11T02:41:02.587Z,100.00
2019-05-11T02:43:30.924Z,100.00
2019-05-11T02:45:59.207Z,100.00
2019-05-11T02:48:27.480Z,100.00
2019-05-11T02:50:55.953Z,100.00
2019-05-11T02:53:24.245Z,100.00
2019-05-11T02:55:52.654Z,100.00
2019-05-11T02:58:20.981Z,100.00
2019-05-11T03:00:49.409Z,100.00
2019-05-11T03:03:17.766Z,100.00
2019-05-11T03:05:46.279Z,100.00
2019-05-11T03:08:14.623Z,100.00
2019-05-11T03:10:42.921Z,100.00
2019-05-11T03:13:11.359Z,100.00
2019-05-11T03:15:39.618Z,100.00
2019-05-11T03:18:07.942Z,100.00
2019-05-11T03:20:36.252Z,100.00
2019-05-11T03:23:04.530Z,100.00
2019-05-11T03:25:33.020Z,100.00
2019-05-11T03:28:01.302Z,100.00
2019-05-11T03:30:29.668Z,100.00
2019-05-11T03:32:57.973Z,100.00
2019-05-11T03:35:26.257Z,100.00
2019-05-11T03:37:54.739Z,100.00
2019-05-11T03:40:22.980Z,100.00
2019-05-11T03:42:51.456Z,100.00
2019-05-11T03:45:19.780Z,100.00
2019-05-11T03:47:48.342Z,100.00
2019-05-11T03:50:16.620Z,100.00
2019-05-11T03:52:44.944Z,100.00
2019-05-11T03:55:13.227Z,100.00
2019-05-11T03:57:41.587Z,100.00
2019-05-11T04:00:10.038Z,100.00
2019-05-11T04:02:38.647Z,100.00
2019-05-11T04:05:07.107Z,100.00
2019-05-11T04:07:35.444Z,100.00
2019-05-11T04:10:05.987Z,100.00
2019-05-11T04:12:35.606Z,100.00
2019-05-11T04:15:06.354Z,100.00
2019-05-11T04:17:34.976Z,100.00
2019-05-11T04:20:04.071Z,100.00
2019-05-11T04:22:32.361Z,100.00
2019-05-11T04:25:00.758Z,100.00
2019-05-11T04:27:29.040Z,100.00
2019-05-11T04:29:57.395Z,100.00
2019-05-11T04:32:25.726Z,100.00
2019-05-11T04:34:54.033Z,100.00
2019-05-11T04:37:22.452Z,100.00
2019-05-11T04:39:50.741Z,100.00
2019-05-11T04:42:19.067Z,100.00
2019-05-11T04:44:51.897Z,100.00
2019-05-11T04:47:17.481Z,100.00
2019-05-11T04:49:45.888Z,100.00
2019-05-11T04:52:14.347Z,100.00
2019-05-11T04:54:42.630Z,100.00
2019-05-11T04:57:10.992Z,100.00
2019-05-11T04:59:39.280Z,100.00
2019-05-11T05:02:07.611Z,100.00
2019-05-11T05:04:35.916Z,100.00
2019-05-11T05:07:05.442Z,100.00
2019-05-11T05:09:36.233Z,100.00
2019-05-11T05:12:08.544Z,100.00
2019-05-11T05:14:34.936Z,100.00
2019-05-11T05:17:03.274Z,100.00
2019-05-11T05:19:31.674Z,100.00
2019-05-11T05:22:00.013Z,100.00
2019-05-11T05:24:28.315Z,100.00
2019-05-11T05:26:56.649Z,100.00
2019-05-11T05:29:24.955Z,100.00
2019-05-11T05:31:54.014Z,100.00
2019-05-11T05:34:22.415Z,100.00
2019-05-11T05:36:50.710Z,100.00
2019-05-11T05:39:18.987Z,100.00
2019-05-11T05:41:56.502Z,100.00
2019-05-11T05:44:17.556Z,100.00
2019-05-11T05:46:45.876Z,100.00
2019-05-11T05:49:14.287Z,100.00
2019-05-11T05:51:42.601Z,100.00
2019-05-11T05:54:10.885Z,100.00
2019-05-11T05:56:39.404Z,100.00
2019-05-11T05:59:08.052Z,100.00
2019-05-11T06:01:36.431Z,100.00
2019-05-11T06:04:04.754Z,100.00
2019-05-11T06:06:33.187Z,100.00
2019-05-11T06:09:01.684Z,100.00
2019-05-11T06:11:29.961Z,100.00
2019-05-11T06:13:58.330Z,100.00
2019-05-11T06:16:27.111Z,100.00
2019-05-11T06:18:55.396Z,100.00
2019-05-11T06:21:24.346Z,100.00
2019-05-11T06:23:52.660Z,100.00
2019-05-11T06:26:23.481Z,100.00
2019-05-11T06:28:51.721Z,100.00
2019-05-11T06:31:20.921Z,100.00
2019-05-11T06:33:49.386Z,100.00
2019-05-11T06:36:17.671Z,100.00
2019-05-11T06:38:45.959Z,100.00
2019-05-11T06:41:14.289Z,100.00
2019-05-11T06:43:42.776Z,100.00
2019-05-11T06:46:11.155Z,100.00
2019-05-11T06:48:39.420Z,100.00
2019-05-11T06:51:07.836Z,100.00
2019-05-11T06:53:36.148Z,100.00
2019-05-11T06:56:04.502Z,100.00
2019-05-11T06:58:32.758Z,100.00
2019-05-11T07:01:01.036Z,100.00
2019-05-11T07:03:29.352Z,100.00
2019-05-11T07:05:57.670Z,100.00
2019-05-11T07:08:26.078Z,100.00
2019-05-11T07:10:54.424Z,100.00
2019-05-11T07:13:22.808Z,100.00
2019-05-11T07:15:51.137Z,100.00
2019-05-11T07:18:19.430Z,100.00
2019-05-11T07:20:50.870Z,100.00
2019-05-11T07:23:17.760Z,100.00
2019-05-11T07:25:46.053Z,100.00
2019-05-11T07:28:14.445Z,100.00
2019-05-11T07:30:42.761Z,100.00
2019-05-11T07:33:11.058Z,100.00
2019-05-11T07:35:39.471Z,100.00
2019-05-11T07:38:08.383Z,100.00
2019-05-11T07:40:38.450Z,97.60
2019-05-11T07:43:09.732Z,96.05
2019-05-11T07:45:38.661Z,94.26
2019-05-11T07:48:08.027Z,95.85
2019-05-11T07:50:38.730Z,97.54
2019-05-11T07:53:08.163Z,94.55
2019-05-11T07:55:38.492Z,94.21
2019-05-11T07:58:08.019Z,90.12
2019-05-11T08:00:39.595Z,90.92
2019-05-11T08:03:08.848Z,91.27
2019-05-11T08:05:38.561Z,89.04
2019-05-11T08:08:08.706Z,88.82
2019-05-11T08:10:39.094Z,89.57
2019-05-11T08:13:09.134Z,89.21
2019-05-11T08:15:38.544Z,87.45
2019-05-11T08:18:08.570Z,87.38
2019-05-11T08:20:38.557Z,87.48
2019-05-11T08:23:09.108Z,86.84
2019-05-11T08:25:37.935Z,85.83
2019-05-11T08:28:11.564Z,86.41
2019-05-11T08:30:38.161Z,88.71
2019-05-11T08:33:08.652Z,88.35
2019-05-11T08:35:38.812Z,86.25
2019-05-11T08:38:08.790Z,83.77
2019-05-11T08:40:37.946Z,81.52
2019-05-11T08:43:08.630Z,80.35
2019-05-11T08:45:39.107Z,77.54
2019-05-11T08:48:08.146Z,77.99
2019-05-11T08:50:38.294Z,78.29
2019-05-11T08:53:08.648Z,79.20
2019-05-11T08:55:38.198Z,78.70
2019-05-11T08:58:07.917Z,77.35
2019-05-11T09:00:38.768Z,75.73
2019-05-11T09:03:08.522Z,76.34
2019-05-11T09:05:38.482Z,77.24
2019-05-11T09:08:08.241Z,77.48
2019-05-11T09:10:39.539Z,79.17
2019-05-11T09:13:08.064Z,78.12
2019-05-11T09:15:40.249Z,76.96
2019-05-11T09:18:08.386Z,75.45
2019-05-11T09:20:37.827Z,76.00
2019-05-11T09:23:08.222Z,75.45
2019-05-11T09:25:38.535Z,75.58
2019-05-11T09:28:08.193Z,77.34
2019-05-11T09:30:37.801Z,74.97
2019-05-11T09:33:08.422Z,77.27
2019-05-11T09:35:47.543Z,73.69
2019-05-11T09:38:08.068Z,73.59
2019-05-11T09:40:38.534Z,77.13
2019-05-11T09:43:08.548Z,77.21
2019-05-11T09:45:45.858Z,76.21
2019-05-11T09:48:08.562Z,75.56
2019-05-11T09:50:38.753Z,76.22
2019-05-11T09:53:08.490Z,75.31
2019-05-11T09:55:38.851Z,74.07
2019-05-11T09:58:08.497Z,71.24
2019-05-11T10:00:38.860Z,73.53
2019-05-11T10:03:08.189Z,73.88
2019-05-11T10:05:38.284Z,70.92
2019-05-11T10:08:07.909Z,73.52
2019-05-11T10:10:38.341Z,74.69
2019-05-11T10:13:08.075Z,71.93
2019-05-11T10:15:38.546Z,71.77
2019-05-11T10:18:08.192Z,69.83
2019-05-11T10:20:39.042Z,71.19
2019-05-11T10:23:08.338Z,72.33
2019-05-11T10:25:38.811Z,69.73
2019-05-11T10:28:08.720Z,70.98
2019-05-11T10:30:38.556Z,67.58
2019-05-11T10:33:08.261Z,71.09
2019-05-11T10:35:37.816Z,66.68
2019-05-11T10:38:08.828Z,67.46
2019-05-11T10:40:38.732Z,65.81
2019-05-11T10:43:07.929Z,64.42
2019-05-11T10:45:37.861Z,63.35
2019-05-11T10:48:08.646Z,64.17
2019-05-11T10:50:38.114Z,64.67
2019-05-11T10:53:08.016Z,64.72
2019-05-11T10:55:38.653Z,65.74
2019-05-11T10:58:08.630Z,65.71
2019-05-11T11:00:38.872Z,64.70
2019-05-11T11:03:08.484Z,65.52
2019-05-11T11:05:38.430Z,59.39
2019-05-11T11:08:11.234Z,58.03
2019-05-11T11:10:39.589Z,55.48
2019-05-11T11:13:08.446Z,55.93
2019-05-11T11:15:38.078Z,58.99
2019-05-11T11:18:08.615Z,58.83
2019-05-11T11:20:38.382Z,59.45
2019-05-11T11:23:08.820Z,56.61
2019-05-11T11:25:37.639Z,58.18
2019-05-11T11:28:08.496Z,57.79
2019-05-11T11:30:37.898Z,57.13
2019-05-11T11:33:07.956Z,53.78
2019-05-11T11:35:38.517Z,55.04
2019-05-11T11:38:08.595Z,54.39
2019-05-11T11:40:38.552Z,54.36
2019-05-11T11:43:08.623Z,48.93
2019-05-11T11:45:38.134Z,49.99
2019-05-11T11:48:08.663Z,49.78
2019-05-11T11:50:37.744Z,48.22
2019-05-11T11:53:08.440Z,48.67
2019-05-11T11:55:39.029Z,46.34
2019-05-11T11:58:08.383Z,49.29
2019-05-11T12:00:39.073Z,46.38
2019-05-11T12:03:07.982Z,46.72
2019-05-11T12:05:38.734Z,45.43
2019-05-11T12:08:08.313Z,45.28
2019-05-11T12:10:37.979Z,45.83
2019-05-11T12:13:08.457Z,46.15
2019-05-11T12:15:38.577Z,45.55
2019-05-11T12:18:08.247Z,46.13
2019-05-11T12:20:38.775Z,45.78
2019-05-11T12:23:08.754Z,45.60
2019-05-11T12:25:40.293Z,44.27
2019-05-11T12:28:08.019Z,46.00
2019-05-11T12:30:37.647Z,46.76
2019-05-11T12:33:08.097Z,44.08
2019-05-11T12:35:37.794Z,45.52
2019-05-11T12:38:07.801Z,46.05
2019-05-11T12:40:38.686Z,45.40
2019-05-11T12:43:08.201Z,45.84
2019-05-11T12:45:37.660Z,45.30
2019-05-11T12:48:06.229Z,42.81
2019-05-11T12:50:34.743Z,41.89
2019-05-11T12:53:03.046Z,44.76
2019-05-11T12:55:32.788Z,42.66
2019-05-11T12:58:01.178Z,44.11
2019-05-11T13:00:31.366Z,44.37
2019-05-11T13:03:00.031Z,42.35
2019-05-11T13:05:28.668Z,42.00
2019-05-11T13:07:58.650Z,41.73
2019-05-11T13:10:28.209Z,41.16
2019-05-11T13:12:58.198Z,42.52
2019-05-11T13:15:28.164Z,41.42
2019-05-11T13:17:58.157Z,42.29
2019-05-11T13:20:28.525Z,40.76
2019-05-11T13:22:58.575Z,40.71
2019-05-11T13:25:28.239Z,41.25
2019-05-11T13:27:58.161Z,43.08
2019-05-11T13:30:27.831Z,41.98
2019-05-11T13:32:58.018Z,42.60
2019-05-11T13:35:28.498Z,42.33
2019-05-11T13:37:58.494Z,42.47
2019-05-11T13:40:27.766Z,41.23
2019-05-11T13:42:58.187Z,39.98
2019-05-11T13:45:28.237Z,42.23
2019-05-11T13:47:59.193Z,39.64
2019-05-11T13:50:26.394Z,39.46
2019-05-11T13:52:54.721Z,39.09
2019-05-11T13:55:23.036Z,40.55
2019-05-11T13:57:51.333Z,41.78
2019-05-11T14:00:19.802Z,41.22
2019-05-11T14:02:48.708Z,41.21
2019-05-11T14:05:18.076Z,41.49
2019-05-11T14:07:48.279Z,41.19
2019-05-11T14:10:18.108Z,42.41
2019-05-11T14:12:47.725Z,41.93
2019-05-11T14:15:18.823Z,42.74
2019-05-11T14:17:48.568Z,42.06
2019-05-11T14:20:18.966Z,40.86
2019-05-11T14:22:47.920Z,42.21
2019-05-11T14:25:18.526Z,41.78
2019-05-11T14:27:47.809Z,42.84
2019-05-11T14:30:18.419Z,43.43
2019-05-11T14:32:47.796Z,43.96
2019-05-11T14:35:18.609Z,44.15
2019-05-11T14:37:48.503Z,42.77
2019-05-11T14:40:17.784Z,42.29
2019-05-11T14:42:48.753Z,41.31
2019-05-11T14:45:18.508Z,43.49
2019-05-11T14:47:47.797Z,42.38
2019-05-11T14:50:18.577Z,42.83
2019-05-11T14:52:48.841Z,43.68
2019-05-11T14:55:18.443Z,41.47
2019-05-11T14:57:48.635Z,41.07
2019-05-11T15:00:18.525Z,40.91
2019-05-11T15:02:49.295Z,39.00
2019-05-11T15:05:18.181Z,40.15
2019-05-11T15:07:47.926Z,39.55
2019-05-11T15:10:18.816Z,41.62
2019-05-11T15:12:48.880Z,40.63
2019-05-11T15:15:18.741Z,39.73
2019-05-11T15:17:49.373Z,40.65
2019-05-11T15:20:17.861Z,39.77
2019-05-11T15:22:48.613Z,39.23
2019-05-11T15:25:19.304Z,39.74
2019-05-11T15:27:48.706Z,38.69
2019-05-11T15:30:18.263Z,39.18
2019-05-11T15:32:48.175Z,40.25
2019-05-11T15:35:18.705Z,41.25
2019-05-11T15:37:47.927Z,42.67
2019-05-11T15:40:18.826Z,41.50
2019-05-11T15:42:48.618Z,41.38
2019-05-11T15:45:18.603Z,41.93
2019-05-11T15:47:48.695Z,41.71
2019-05-11T15:50:18.920Z,41.85
2019-05-11T15:52:48.768Z,42.24
2019-05-11T15:55:18.817Z,42.65
2019-05-11T15:57:48.286Z,42.63
2019-05-11T16:00:16.972Z,42.43
2019-05-11T16:02:45.374Z,43.79
2019-05-11T16:05:14.429Z,44.29
2019-05-11T16:07:42.893Z,44.52
2019-05-11T16:10:11.201Z,45.31
2019-05-11T16:12:39.497Z,46.08
2019-05-11T16:15:09.334Z,46.93
2019-05-11T16:17:40.142Z,46.75
2019-05-11T16:20:10.776Z,47.59
2019-05-11T16:22:39.093Z,47.31
2019-05-11T16:25:08.530Z,48.21
2019-05-11T16:27:37.920Z,47.79
2019-05-11T16:30:10.327Z,47.20
2019-05-11T16:32:38.800Z,49.38
2019-05-11T16:35:08.823Z,48.89
2019-05-11T16:37:38.034Z,48.50
2019-05-11T16:40:07.462Z,48.50
2019-05-11T16:42:35.791Z,48.11
2019-05-11T16:45:05.409Z,48.05
2019-05-11T16:47:33.737Z,48.18
2019-05-11T16:50:02.138Z,49.15
2019-05-11T16:52:30.414Z,50.37
2019-05-11T16:54:58.748Z,48.24
2019-05-11T16:57:26.998Z,48.32
2019-05-11T16:59:55.590Z,49.38
2019-05-11T17:02:23.889Z,50.40
2019-05-11T17:04:52.208Z,52.20
2019-05-11T17:07:20.474Z,52.76
2019-05-11T17:09:48.902Z,53.07
2019-05-11T17:12:18.010Z,53.21
2019-05-11T17:14:59.231Z,52.10
2019-05-11T17:17:27.885Z,52.19
2019-05-11T17:19:58.753Z,52.60
2019-05-11T17:22:28.196Z,53.02
2019-05-11T17:24:58.788Z,52.37
2019-05-11T17:27:28.564Z,54.33
2019-05-11T17:29:59.150Z,53.66
2019-05-11T17:32:29.194Z,53.36
2019-05-11T17:34:58.106Z,53.43
2019-05-11T17:37:28.552Z,53.68
2019-05-11T17:39:58.536Z,54.13
2019-05-11T17:42:26.546Z,56.17
2019-05-11T17:44:54.953Z,55.41
2019-05-11T17:47:23.803Z,56.02
2019-05-11T17:49:59.571Z,56.46
2019-05-11T17:52:22.219Z,56.67
2019-05-11T17:54:50.670Z,57.37
2019-05-11T17:57:18.914Z,57.21
2019-05-11T17:59:47.631Z,57.12
2019-05-11T18:02:18.053Z,57.27
2019-05-11T18:04:46.383Z,57.31
2019-05-11T18:07:25.214Z,57.47
2019-05-11T18:09:44.683Z,57.53
2019-05-11T18:12:13.031Z,57.11
2019-05-11T18:14:41.311Z,58.21
2019-05-11T18:17:10.386Z,59.21
2019-05-11T18:19:38.877Z,59.23
2019-05-11T18:22:08.286Z,59.63
2019-05-11T18:24:38.331Z,60.33
2019-05-11T18:27:08.337Z,60.32
2019-05-11T18:29:38.022Z,61.19
2019-05-11T18:32:06.524Z,61.67
2019-05-11T18:34:34.939Z,62.03
2019-05-11T18:37:03.216Z,61.93
2019-05-11T18:39:31.663Z,62.14
2019-05-11T18:41:59.968Z,62.34
2019-05-11T18:44:28.240Z,62.76
2019-05-11T18:46:59.095Z,63.17
2019-05-11T18:49:28.541Z,62.45
2019-05-11T18:51:58.644Z,63.09
2019-05-11T18:54:27.732Z,63.21
2019-05-11T18:56:56.238Z,63.60
2019-05-11T18:59:25.476Z,63.76
2019-05-11T19:01:53.783Z,63.84
2019-05-11T19:04:22.191Z,63.89
2019-05-11T19:06:50.494Z,64.17
2019-05-11T19:09:18.884Z,64.35
2019-05-11T19:11:48.954Z,64.97
2019-05-11T19:14:17.366Z,65.25
2019-05-11T19:16:45.669Z,65.46
2019-05-11T19:19:14.064Z,66.13
2019-05-11T19:21:42.415Z,66.46
2019-05-11T19:24:10.714Z,66.37
2019-05-11T19:26:39.062Z,66.06
2019-05-11T19:29:08.926Z,66.68
2019-05-11T19:31:38.561Z,66.90
2019-05-11T19:34:09.138Z,67.49
2019-05-11T19:36:38.200Z,66.88
2019-05-11T19:39:08.826Z,67.03
2019-05-11T19:41:37.458Z,67.05
2019-05-11T19:44:08.392Z,67.32
2019-05-11T19:46:38.862Z,67.97
2019-05-11T19:49:08.660Z,68.10
2019-05-11T19:51:42.059Z,68.10
2019-05-11T19:54:08.473Z,68.31
2019-05-11T19:56:38.376Z,68.86
2019-05-11T19:59:08.563Z,69.13
2019-05-11T20:01:37.165Z,69.31
2019-05-11T20:04:05.491Z,69.34
2019-05-11T20:06:33.809Z,69.67
2019-05-11T20:09:02.220Z,69.70
2019-05-11T20:11:30.527Z,69.79
2019-05-11T20:13:59.107Z,70.56
2019-05-11T20:16:27.434Z,71.00
2019-05-11T20:18:57.692Z,71.42
2019-05-11T20:21:25.729Z,71.89
2019-05-11T20:23:54.520Z,71.76
2019-05-11T20:26:22.793Z,72.02
2019-05-11T20:28:51.096Z,72.51
2019-05-11T20:31:19.968Z,73.45
2019-05-11T20:33:48.380Z,73.44
2019-05-11T20:36:17.758Z,73.53
2019-05-11T20:38:47.601Z,74.25
2019-05-11T20:41:16.247Z,74.38
2019-05-11T20:43:45.357Z,74.23
2019-05-11T20:46:13.843Z,74.57
2019-05-11T20:48:42.227Z,74.96
2019-05-11T20:51:10.623Z,76.08
2019-05-11T20:53:38.936Z,75.75
2019-05-11T20:56:08.577Z,75.86
2019-05-11T20:58:54.852Z,75.92
2019-05-11T21:01:23.862Z,76.70
2019-05-11T21:03:52.142Z,76.74
2019-05-11T21:06:20.490Z,76.85
2019-05-11T21:08:48.767Z,76.80
2019-05-11T21:11:18.022Z,77.14
2019-05-11T21:13:48.132Z,77.32
2019-05-11T21:16:16.634Z,78.03
2019-05-11T21:18:45.082Z,78.54
2019-05-11T21:21:13.425Z,78.82
2019-05-11T21:23:41.702Z,79.25
2019-05-11T21:26:10.104Z,79.60
2019-05-11T21:28:38.393Z,79.95
2019-05-11T21:31:08.052Z,79.93
2019-05-11T21:33:37.938Z,79.82
2019-05-11T21:36:08.667Z,80.33
2019-05-11T21:38:38.503Z,80.52
2019-05-11T21:41:08.601Z,81.09
2019-05-11T21:43:37.641Z,81.04
2019-05-11T21:46:08.176Z,80.93
2019-05-11T21:48:38.449Z,81.54
2019-05-11T21:51:08.515Z,81.66
2019-05-11T21:53:38.156Z,81.82
2019-05-11T21:56:08.159Z,82.33
2019-05-11T21:58:37.836Z,82.85
2019-05-11T22:01:08.914Z,84.06
2019-05-11T22:03:38.267Z,84.17
2019-05-11T22:06:08.585Z,83.98
2019-05-11T22:08:36.750Z,84.30
2019-05-11T22:11:08.728Z,84.43
2019-05-11T22:13:37.872Z,84.29
2019-05-11T22:16:08.497Z,84.46
2019-05-11T22:18:38.056Z,84.35
2019-05-11T22:21:08.601Z,84.27
2019-05-11T22:23:38.450Z,84.29
2019-05-11T22:26:07.760Z,84.41
2019-05-11T22:28:38.958Z,84.56
2019-05-11T22:31:07.842Z,84.70
2019-05-11T22:33:38.411Z,84.70
2019-05-11T22:36:06.206Z,84.99
2019-05-11T22:38:34.731Z,85.49
2019-05-11T22:41:03.014Z,86.04
2019-05-11T22:43:31.284Z,86.03
2019-05-11T22:45:59.591Z,86.38
2019-05-11T22:48:27.892Z,86.63
2019-05-11T22:50:58.480Z,86.72
2019-05-11T22:53:41.739Z,87.57
2019-05-11T22:55:56.319Z,88.50
2019-05-11T22:58:24.616Z,88.46
2019-05-11T23:00:52.912Z,88.50
2019-05-11T23:03:22.902Z,89.50
2019-05-11T23:05:52.122Z,89.96
2019-05-11T23:08:20.462Z,90.13
2019-05-11T23:10:48.885Z,90.50
2019-05-11T23:13:18.690Z,90.38
2019-05-11T23:15:47.757Z,90.64
2019-05-11T23:18:18.018Z,91.84
2019-05-11T23:20:47.884Z,92.33
2019-05-11T23:23:17.789Z,92.68
2019-05-11T23:25:46.487Z,93.64
2019-05-11T23:28:14.780Z,94.11
2019-05-11T23:30:43.187Z,95.17
2019-05-11T23:33:11.628Z,95.04
2019-05-11T23:35:39.903Z,95.46
2019-05-11T23:38:08.211Z,95.66
2019-05-11T23:40:37.999Z,95.56
2019-05-11T23:43:08.573Z,95.85
2019-05-11T23:45:38.187Z,96.03
2019-05-11T23:48:06.632Z,96.96
2019-05-11T23:50:34.921Z,96.91
2019-05-11T23:53:06.488Z,97.42
2019-05-11T23:55:33.222Z,97.85
2019-05-11T23:58:01.563Z,97.92
